Terminal Aerodrome Forecast
Issued by NWS Cleveland, OH

Home | Current Version | Previous Version | Graphics & Text | Print | Product List | Glossary Off
Versions: 1 2 3 4 5 6 7 8 9 10 11 12 13

944
FTUS41 KCLE 231120
TAFTOL
TAF
KTOL 231120Z 2312/2412 06005KT P6SM SCT250
     FM231600 12010KT P6SM FEW060 BKN250
     FM232000 12010KT P6SM SCT060 BKN100
     FM240600 09008KT P6SM BKN020 OVC035=

USA.gov is the U.S. government's official web portal to all federal, state and local government web resources and services.